sensor_id;sensor_type;location;lat;lon;timestamp;temperature;humidity
16134;DHT22;8172;45.018;5.972;2023-01-23T00:03:20;-5.60;68.70
16134;DHT22;8172;45.018;5.972;2023-01-23T00:08:28;-5.70;68.60
16134;DHT22;8172;45.018;5.972;2023-01-23T00:13:35;-5.70;68.70
16134;DHT22;8172;45.018;5.972;2023-01-23T00:18:43;-5.70;68.70
16134;DHT22;8172;45.018;5.972;2023-01-23T00:23:53;-5.70;68.80
16134;DHT22;8172;45.018;5.972;2023-01-23T00:29:06;-5.70;68.80
16134;DHT22;8172;45.018;5.972;2023-01-23T00:34:13;-5.70;68.70
16134;DHT22;8172;45.018;5.972;2023-01-23T00:39:21;-5.80;68.70
16134;DHT22;8172;45.018;5.972;2023-01-23T00:44:28;-5.80;68.70
16134;DHT22;8172;45.018;5.972;2023-01-23T00:49:35;-5.80;68.80
16134;DHT22;8172;45.018;5.972;2023-01-23T00:54:42;-5.80;68.80
16134;DHT22;8172;45.018;5.972;2023-01-23T00:59:49;-5.80;68.80
16134;DHT22;8172;45.018;5.972;2023-01-23T01:04:56;-5.80;68.80
16134;DHT22;8172;45.018;5.972;2023-01-23T01:10:04;-5.80;68.70
16134;DHT22;8172;45.018;5.972;2023-01-23T01:15:11;-5.80;68.60
16134;DHT22;8172;45.018;5.972;2023-01-23T01:20:20;-5.90;68.70
16134;DHT22;8172;45.018;5.972;2023-01-23T01:25:29;-6.00;68.70
16134;DHT22;8172;45.018;5.972;2023-01-23T01:30:37;-6.00;68.70
16134;DHT22;8172;45.018;5.972;2023-01-23T01:35:45;-6.10;68.80
16134;DHT22;8172;45.018;5.972;2023-01-23T01:40:51;-6.10;68.90
16134;DHT22;8172;45.018;5.972;2023-01-23T01:51:12;-6.20;68.80
16134;DHT22;8172;45.018;5.972;2023-01-23T01:56:19;-6.10;68.90
16134;DHT22;8172;45.018;5.972;2023-01-23T02:01:26;-6.10;68.80
16134;DHT22;8172;45.018;5.972;2023-01-23T02:06:33;-6.00;68.80
16134;DHT22;8172;45.018;5.972;2023-01-23T02:11:42;-6.00;68.70
16134;DHT22;8172;45.018;5.972;2023-01-23T02:16:50;-6.00;68.70
16134;DHT22;8172;45.018;5.972;2023-01-23T02:22:03;-6.00;68.60
16134;DHT22;8172;45.018;5.972;2023-01-23T02:27:08;-6.00;68.60
16134;DHT22;8172;45.018;5.972;2023-01-23T02:32:15;-6.00;68.50
16134;DHT22;8172;45.018;5.972;2023-01-23T02:37:26;-6.00;68.50
16134;DHT22;8172;45.018;5.972;2023-01-23T02:42:35;-6.00;68.40
16134;DHT22;8172;45.018;5.972;2023-01-23T02:47:43;-6.00;68.40
16134;DHT22;8172;45.018;5.972;2023-01-23T02:52:50;-6.00;68.20
16134;DHT22;8172;45.018;5.972;2023-01-23T02:57:59;-6.10;68.10
16134;DHT22;8172;45.018;5.972;2023-01-23T03:03:08;-6.10;68.00
16134;DHT22;8172;45.018;5.972;2023-01-23T03:08:15;-6.10;67.90
16134;DHT22;8172;45.018;5.972;2023-01-23T03:13:22;-6.10;67.80
16134;DHT22;8172;45.018;5.972;2023-01-23T03:18:31;-6.20;67.70
16134;DHT22;8172;45.018;5.972;2023-01-23T03:23:40;-6.20;67.70
16134;DHT22;8172;45.018;5.972;2023-01-23T03:28:49;-6.30;67.60
16134;DHT22;8172;45.018;5.972;2023-01-23T03:33:58;-6.40;67.40
16134;DHT22;8172;45.018;5.972;2023-01-23T03:39:06;-6.40;67.20
16134;DHT22;8172;45.018;5.972;2023-01-23T03:44:17;-6.50;67.20
16134;DHT22;8172;45.018;5.972;2023-01-23T03:49:25;-6.50;67.30
16134;DHT22;8172;45.018;5.972;2023-01-23T03:54:33;-6.50;67.10
16134;DHT22;8172;45.018;5.972;2023-01-23T03:59:42;-6.60;67.10
16134;DHT22;8172;45.018;5.972;2023-01-23T04:04:50;-6.60;67.10
16134;DHT22;8172;45.018;5.972;2023-01-23T04:09:57;-6.70;67.30
16134;DHT22;8172;45.018;5.972;2023-01-23T04:15:05;-6.60;67.50
16134;DHT22;8172;45.018;5.972;2023-01-23T04:20:13;-6.60;67.50
16134;DHT22;8172;45.018;5.972;2023-01-23T04:25:20;-6.70;67.30
16134;DHT22;8172;45.018;5.972;2023-01-23T04:30:27;-6.70;67.30
16134;DHT22;8172;45.018;5.972;2023-01-23T04:35:36;-6.70;67.30
16134;DHT22;8172;45.018;5.972;2023-01-23T04:40:45;-6.70;67.10
16134;DHT22;8172;45.018;5.972;2023-01-23T04:45:54;-6.70;66.90
16134;DHT22;8172;45.018;5.972;2023-01-23T04:51:04;-6.80;66.90
16134;DHT22;8172;45.018;5.972;2023-01-23T04:56:12;-6.80;66.90
16134;DHT22;8172;45.018;5.972;2023-01-23T05:01:19;-6.80;66.80
16134;DHT22;8172;45.018;5.972;2023-01-23T05:06:30;-6.80;66.70
16134;DHT22;8172;45.018;5.972;2023-01-23T05:11:37;-6.90;66.70
16134;DHT22;8172;45.018;5.972;2023-01-23T05:16:46;-6.90;66.80
16134;DHT22;8172;45.018;5.972;2023-01-23T05:21:54;-6.90;66.80
16134;DHT22;8172;45.018;5.972;2023-01-23T05:27:02;-6.90;66.80
16134;DHT22;8172;45.018;5.972;2023-01-23T05:32:11;-6.90;66.60
16134;DHT22;8172;45.018;5.972;2023-01-23T05:37:20;-6.90;66.30
16134;DHT22;8172;45.018;5.972;2023-01-23T05:42:31;-7.00;66.20
16134;DHT22;8172;45.018;5.972;2023-01-23T05:47:39;-7.00;66.00
16134;DHT22;8172;45.018;5.972;2023-01-23T05:52:47;-7.10;65.90
16134;DHT22;8172;45.018;5.972;2023-01-23T05:57:55;-7.20;65.70
16134;DHT22;8172;45.018;5.972;2023-01-23T06:03:04;-7.30;65.80
16134;DHT22;8172;45.018;5.972;2023-01-23T06:08:13;-7.30;65.80
16134;DHT22;8172;45.018;5.972;2023-01-23T06:13:20;-7.30;65.80
16134;DHT22;8172;45.018;5.972;2023-01-23T06:18:27;-7.30;65.80
16134;DHT22;8172;45.018;5.972;2023-01-23T06:23:34;-7.40;65.50
16134;DHT22;8172;45.018;5.972;2023-01-23T06:28:41;-7.40;65.70
16134;DHT22;8172;45.018;5.972;2023-01-23T06:33:50;-7.40;66.00
16134;DHT22;8172;45.018;5.972;2023-01-23T06:38:59;-7.30;66.00
16134;DHT22;8172;45.018;5.972;2023-01-23T06:44:08;-7.30;66.10
16134;DHT22;8172;45.018;5.972;2023-01-23T06:49:15;-7.30;66.10
16134;DHT22;8172;45.018;5.972;2023-01-23T06:54:24;-7.30;66.10
16134;DHT22;8172;45.018;5.972;2023-01-23T06:59:32;-7.30;66.10
16134;DHT22;8172;45.018;5.972;2023-01-23T07:04:41;-7.30;66.20
16134;DHT22;8172;45.018;5.972;2023-01-23T07:09:48;-7.20;66.20
16134;DHT22;8172;45.018;5.972;2023-01-23T07:14:57;-7.20;66.20
16134;DHT22;8172;45.018;5.972;2023-01-23T07:20:06;-7.20;66.10
16134;DHT22;8172;45.018;5.972;2023-01-23T07:25:15;-7.20;66.20
16134;DHT22;8172;45.018;5.972;2023-01-23T07:30:22;-7.20;66.20
16134;DHT22;8172;45.018;5.972;2023-01-23T07:35:29;-7.20;66.10
16134;DHT22;8172;45.018;5.972;2023-01-23T07:40:36;-7.20;66.10
16134;DHT22;8172;45.018;5.972;2023-01-23T07:45:43;-7.20;66.30
16134;DHT22;8172;45.018;5.972;2023-01-23T07:50:50;-7.10;66.40
16134;DHT22;8172;45.018;5.972;2023-01-23T07:55:57;-7.10;66.40
16134;DHT22;8172;45.018;5.972;2023-01-23T08:01:08;-7.10;66.30
16134;DHT22;8172;45.018;5.972;2023-01-23T08:06:15;-7.10;66.30
16134;DHT22;8172;45.018;5.972;2023-01-23T08:11:22;-7.10;66.30
16134;DHT22;8172;45.018;5.972;2023-01-23T08:16:30;-7.00;66.40
16134;DHT22;8172;45.018;5.972;2023-01-23T08:21:37;-7.00;66.50
16134;DHT22;8172;45.018;5.972;2023-01-23T08:26:44;-7.00;66.50
16134;DHT22;8172;45.018;5.972;2023-01-23T08:31:51;-6.90;66.60
16134;DHT22;8172;45.018;5.972;2023-01-23T08:37:00;-6.90;66.50
16134;DHT22;8172;45.018;5.972;2023-01-23T08:42:08;-6.90;66.50
16134;DHT22;8172;45.018;5.972;2023-01-23T08:47:15;-7.00;66.30
16134;DHT22;8172;45.018;5.972;2023-01-23T08:52:22;-7.00;66.60
16134;DHT22;8172;45.018;5.972;2023-01-23T08:57:30;-6.90;66.80
16134;DHT22;8172;45.018;5.972;2023-01-23T09:02:37;-6.80;66.80
16134;DHT22;8172;45.018;5.972;2023-01-23T09:07:45;-6.70;66.80
16134;DHT22;8172;45.018;5.972;2023-01-23T09:12:54;-6.70;66.70
16134;DHT22;8172;45.018;5.972;2023-01-23T09:18:02;-6.60;66.90
16134;DHT22;8172;45.018;5.972;2023-01-23T09:23:11;-6.60;66.90
16134;DHT22;8172;45.018;5.972;2023-01-23T09:28:17;-6.50;66.80
16134;DHT22;8172;45.018;5.972;2023-01-23T09:33:24;-6.40;66.80
16134;DHT22;8172;45.018;5.972;2023-01-23T09:38:32;-6.30;67.20
16134;DHT22;8172;45.018;5.972;2023-01-23T09:48:54;-6.00;67.80
16134;DHT22;8172;45.018;5.972;2023-01-23T09:54:03;-5.90;67.90
16134;DHT22;8172;45.018;5.972;2023-01-23T10:04:19;-5.60;67.90
16134;DHT22;8172;45.018;5.972;2023-01-23T10:09:29;-5.40;67.70
16134;DHT22;8172;45.018;5.972;2023-01-23T10:14:40;-5.20;67.80
16134;DHT22;8172;45.018;5.972;2023-01-23T10:24:56;-4.80;67.70
16134;DHT22;8172;45.018;5.972;2023-01-23T10:35:14;-4.50;67.60
16134;DHT22;8172;45.018;5.972;2023-01-23T10:40:22;-4.30;67.50
16134;DHT22;8172;45.018;5.972;2023-01-23T10:45:31;-4.10;67.10
16134;DHT22;8172;45.018;5.972;2023-01-23T10:50:37;-4.00;67.10
16134;DHT22;8172;45.018;5.972;2023-01-23T10:55:45;-3.90;67.00
16134;DHT22;8172;45.018;5.972;2023-01-23T11:00:54;-3.80;66.90
16134;DHT22;8172;45.018;5.972;2023-01-23T11:16:20;-3.50;66.70
16134;DHT22;8172;45.018;5.972;2023-01-23T11:21:29;-3.30;66.40
16134;DHT22;8172;45.018;5.972;2023-01-23T11:26:37;-3.30;66.30
16134;DHT22;8172;45.018;5.972;2023-01-23T11:31:44;-3.30;66.30
16134;DHT22;8172;45.018;5.972;2023-01-23T11:36:56;-3.30;66.40
16134;DHT22;8172;45.018;5.972;2023-01-23T11:42:01;-3.20;66.50
16134;DHT22;8172;45.018;5.972;2023-01-23T12:07:54;-2.90;66.00
16134;DHT22;8172;45.018;5.972;2023-01-23T12:38:51;-2.60;66.00
16134;DHT22;8172;45.018;5.972;2023-01-23T12:54:15;-2.30;65.80
16134;DHT22;8172;45.018;5.972;2023-01-23T12:59:26;-2.20;65.90
16134;DHT22;8172;45.018;5.972;2023-01-23T13:04:45;-2.00;65.90
16134;DHT22;8172;45.018;5.972;2023-01-23T13:14:52;-1.60;66.00
16134;DHT22;8172;45.018;5.972;2023-01-23T13:25:15;-1.50;65.50
16134;DHT22;8172;45.018;5.972;2023-01-23T13:40:38;-1.60;64.80
16134;DHT22;8172;45.018;5.972;2023-01-23T13:45:49;-1.80;64.90
16134;DHT22;8172;45.018;5.972;2023-01-23T13:51:03;-1.90;65.30
16134;DHT22;8172;45.018;5.972;2023-01-23T13:56:15;-2.00;64.90
16134;DHT22;8172;45.018;5.972;2023-01-23T14:01:21;-2.00;65.40
16134;DHT22;8172;45.018;5.972;2023-01-23T14:06:33;-2.00;65.50
16134;DHT22;8172;45.018;5.972;2023-01-23T14:11:40;-2.00;65.20
16134;DHT22;8172;45.018;5.972;2023-01-23T14:16:50;-2.10;65.60
16134;DHT22;8172;45.018;5.972;2023-01-23T14:21:59;-2.10;65.60
16134;DHT22;8172;45.018;5.972;2023-01-23T14:27:09;-2.10;65.30
16134;DHT22;8172;45.018;5.972;2023-01-23T14:32:20;-2.20;64.90
16134;DHT22;8172;45.018;5.972;2023-01-23T14:37:30;-2.40;64.80
16134;DHT22;8172;45.018;5.972;2023-01-23T14:42:39;-2.50;64.80
16134;DHT22;8172;45.018;5.972;2023-01-23T14:47:46;-2.70;65.10
16134;DHT22;8172;45.018;5.972;2023-01-23T14:53:01;-2.80;65.30
16134;DHT22;8172;45.018;5.972;2023-01-23T14:58:12;-2.90;65.50
16134;DHT22;8172;45.018;5.972;2023-01-23T15:08:31;-3.00;65.70
16134;DHT22;8172;45.018;5.972;2023-01-23T15:13:41;-3.10;65.30
16134;DHT22;8172;45.018;5.972;2023-01-23T15:44:32;-3.80;65.80
16134;DHT22;8172;45.018;5.972;2023-01-23T15:49:39;-3.90;66.10
16134;DHT22;8172;45.018;5.972;2023-01-23T15:54:52;-4.00;66.10
16134;DHT22;8172;45.018;5.972;2023-01-23T15:59:58;-4.00;66.20
16134;DHT22;8172;45.018;5.972;2023-01-23T16:05:08;-4.10;66.20
16134;DHT22;8172;45.018;5.972;2023-01-23T16:10:18;-4.20;66.30
16134;DHT22;8172;45.018;5.972;2023-01-23T16:15:27;-4.20;66.40
16134;DHT22;8172;45.018;5.972;2023-01-23T16:20:40;-4.30;66.50
16134;DHT22;8172;45.018;5.972;2023-01-23T16:25:47;-4.30;66.50
16134;DHT22;8172;45.018;5.972;2023-01-23T16:30:55;-4.40;66.70
16134;DHT22;8172;45.018;5.972;2023-01-23T16:36:02;-4.40;66.70
16134;DHT22;8172;45.018;5.972;2023-01-23T16:41:09;-4.50;66.90
16134;DHT22;8172;45.018;5.972;2023-01-23T16:46:16;-4.50;67.10
16134;DHT22;8172;45.018;5.972;2023-01-23T16:51:42;-4.60;67.20
16134;DHT22;8172;45.018;5.972;2023-01-23T16:56:49;-4.60;67.60
16134;DHT22;8172;45.018;5.972;2023-01-23T17:01:57;-4.60;67.80
16134;DHT22;8172;45.018;5.972;2023-01-23T17:07:10;-4.70;68.10
16134;DHT22;8172;45.018;5.972;2023-01-23T17:12:21;-4.70;68.10
16134;DHT22;8172;45.018;5.972;2023-01-23T17:17:28;-4.70;68.10
16134;DHT22;8172;45.018;5.972;2023-01-23T17:22:38;-4.70;68.00
16134;DHT22;8172;45.018;5.972;2023-01-23T17:27:46;-4.70;68.00
16134;DHT22;8172;45.018;5.972;2023-01-23T17:32:56;-4.70;67.90
16134;DHT22;8172;45.018;5.972;2023-01-23T17:38:04;-4.70;68.00
16134;DHT22;8172;45.018;5.972;2023-01-23T17:43:12;-4.80;67.90
16134;DHT22;8172;45.018;5.972;2023-01-23T17:48:25;-4.80;68.10
16134;DHT22;8172;45.018;5.972;2023-01-23T17:53:29;-4.80;68.10
16134;DHT22;8172;45.018;5.972;2023-01-23T17:58:37;-4.80;68.30
16134;DHT22;8172;45.018;5.972;2023-01-23T18:03:47;-4.80;68.20
16134;DHT22;8172;45.018;5.972;2023-01-23T18:08:55;-4.80;68.10
16134;DHT22;8172;45.018;5.972;2023-01-23T18:24:22;-4.80;67.90
16134;DHT22;8172;45.018;5.972;2023-01-23T18:29:41;-4.90;67.80
16134;DHT22;8172;45.018;5.972;2023-01-23T18:34:49;-4.90;67.80
16134;DHT22;8172;45.018;5.972;2023-01-23T18:39:53;-5.00;67.70
16134;DHT22;8172;45.018;5.972;2023-01-23T18:45:02;-5.00;67.80
16134;DHT22;8172;45.018;5.972;2023-01-23T19:05:40;-5.00;68.50
16134;DHT22;8172;45.018;5.972;2023-01-23T19:10:48;-5.00;68.60
16134;DHT22;8172;45.018;5.972;2023-01-23T19:16:00;-5.00;68.50
16134;DHT22;8172;45.018;5.972;2023-01-23T19:26:16;-5.00;68.70
16134;DHT22;8172;45.018;5.972;2023-01-23T19:31:24;-5.00;68.70
16134;DHT22;8172;45.018;5.972;2023-01-23T19:36:34;-4.90;68.90
16134;DHT22;8172;45.018;5.972;2023-01-23T19:41:43;-4.90;69.00
16134;DHT22;8172;45.018;5.972;2023-01-23T19:46:51;-4.90;69.10
16134;DHT22;8172;45.018;5.972;2023-01-23T19:51:59;-4.90;69.20
16134;DHT22;8172;45.018;5.972;2023-01-23T19:57:06;-4.90;69.10
16134;DHT22;8172;45.018;5.972;2023-01-23T20:02:16;-4.90;69.00
16134;DHT22;8172;45.018;5.972;2023-01-23T20:07:24;-4.90;69.10
16134;DHT22;8172;45.018;5.972;2023-01-23T20:12:31;-4.90;69.10
16134;DHT22;8172;45.018;5.972;2023-01-23T20:17:38;-4.90;69.20
16134;DHT22;8172;45.018;5.972;2023-01-23T20:22:45;-4.80;69.20
16134;DHT22;8172;45.018;5.972;2023-01-23T20:27:52;-4.90;69.30
16134;DHT22;8172;45.018;5.972;2023-01-23T20:33:00;-4.90;69.30
16134;DHT22;8172;45.018;5.972;2023-01-23T20:38:08;-4.90;69.30
16134;DHT22;8172;45.018;5.972;2023-01-23T20:43:16;-4.90;69.40
16134;DHT22;8172;45.018;5.972;2023-01-23T20:48:23;-5.00;69.40
16134;DHT22;8172;45.018;5.972;2023-01-23T20:53:30;-5.00;69.70
16134;DHT22;8172;45.018;5.972;2023-01-23T20:58:41;-5.00;69.80
16134;DHT22;8172;45.018;5.972;2023-01-23T21:03:50;-5.00;69.90
16134;DHT22;8172;45.018;5.972;2023-01-23T21:08:57;-4.90;69.90
16134;DHT22;8172;45.018;5.972;2023-01-23T21:14:04;-4.90;70.00
16134;DHT22;8172;45.018;5.972;2023-01-23T21:19:11;-4.90;69.80
16134;DHT22;8172;45.018;5.972;2023-01-23T21:24:18;-4.90;69.90
16134;DHT22;8172;45.018;5.972;2023-01-23T21:29:25;-4.80;69.90
16134;DHT22;8172;45.018;5.972;2023-01-23T21:34:32;-4.80;69.90
16134;DHT22;8172;45.018;5.972;2023-01-23T21:39:39;-4.80;69.90
16134;DHT22;8172;45.018;5.972;2023-01-23T21:44:46;-4.80;69.90
16134;DHT22;8172;45.018;5.972;2023-01-23T21:49:54;-4.80;69.90
16134;DHT22;8172;45.018;5.972;2023-01-23T21:55:01;-4.80;70.10
16134;DHT22;8172;45.018;5.972;2023-01-23T22:00:15;-4.80;70.10
16134;DHT22;8172;45.018;5.972;2023-01-23T22:05:37;-4.80;70.00
16134;DHT22;8172;45.018;5.972;2023-01-23T22:10:43;-4.80;70.00
16134;DHT22;8172;45.018;5.972;2023-01-23T22:15:50;-4.70;69.80
16134;DHT22;8172;45.018;5.972;2023-01-23T22:26:12;-4.80;69.70
16134;DHT22;8172;45.018;5.972;2023-01-23T22:31:21;-4.80;69.40
16134;DHT22;8172;45.018;5.972;2023-01-23T22:36:28;-4.90;69.60
16134;DHT22;8172;45.018;5.972;2023-01-23T22:41:35;-4.90;69.50
16134;DHT22;8172;45.018;5.972;2023-01-23T22:46:42;-4.90;69.60
16134;DHT22;8172;45.018;5.972;2023-01-23T22:51:50;-4.90;69.50
16134;DHT22;8172;45.018;5.972;2023-01-23T22:56:57;-5.00;69.30
16134;DHT22;8172;45.018;5.972;2023-01-23T23:02:04;-5.00;69.20
16134;DHT22;8172;45.018;5.972;2023-01-23T23:07:11;-5.00;69.10
16134;DHT22;8172;45.018;5.972;2023-01-23T23:12:18;-5.10;68.80
16134;DHT22;8172;45.018;5.972;2023-01-23T23:17:27;-5.20;68.60
16134;DHT22;8172;45.018;5.972;2023-01-23T23:22:34;-5.20;68.80
16134;DHT22;8172;45.018;5.972;2023-01-23T23:27:41;-5.30;68.90
16134;DHT22;8172;45.018;5.972;2023-01-23T23:32:48;-5.40;68.90
16134;DHT22;8172;45.018;5.972;2023-01-23T23:37:55;-5.50;68.60
16134;DHT22;8172;45.018;5.972;2023-01-23T23:43:02;-5.50;68.60
16134;DHT22;8172;45.018;5.972;2023-01-23T23:48:09;-5.60;68.70
16134;DHT22;8172;45.018;5.972;2023-01-23T23:53:17;-5.60;68.90
16134;DHT22;8172;45.018;5.972;2023-01-23T23:58:25;-5.60;69.20
